Mount Pleasant, SC

7:43 PM EST on January 24, 2017 (GMT -0500)
Snee Farm | | Change Station
Active Advisory: Flood Warning

Elev 22 ft 32.84 °N, 79.84 °W | Updated 3 minutes ago

Clear
Clear
58.6 °F
Feels Like 58.6 °F
N
0.0
Wind Variable Wind from West

Today
High -- | Low -- °F
--% Chance of Precip.
Yesterday
High -- | Low -- °F
Precip. -- in
Pressure 29.81 in
Visibility 10.0 miles
Clouds Clear
Dew Point 48 °F
Humidity 68%
Rainfall 0.00 in
Snow Depth Not available.
7:18 AM 5:44 PM
Waning Crescent, 9% visible
METAR KCHS 242356Z 26006KT 10SM CLR 14/07 A2981 RMK AO2 SLP095 T01440067 10200 20144 53030
Pressure 29.81 in
Visibility 10.0 miles
Clouds Clear
Dew Point 48 °F
Humidity 68%
Rainfall 0.00 in
Snow Depth Not available.
7:18 AM 5:44 PM
Waning Crescent, 9% visible
METAR KCHS 242356Z 26006KT 10SM CLR 14/07 A2981 RMK AO2 SLP095 T01440067 10200 20144 53030

Get Your Daily Forecast Email!

Thanks for signing up!

Be on the lookout for a verification email in your inbox.

You'll start receiving the daily forecast at 8 AM.

×

10-Day Weather Forecast

Almanac

Astronomy

Jan. 24, 2017 Rise Set
Actual Time
Civil Twilight
Nautical Twilight
Astronomical Twilight
Moon
Length of Visible Light
Length of Day
Tomorrow will be .
, % of the Moon is Illuminated

Today's Extremes

State Highs State Lows

Community

WunderPhotos

Upload Photos

1,962,540 photos uploaded!

WunderBlog® & News

Nearby

Air Quality

  Air Quality AQ Index Pollutant
Not available.

Snow Depth

Station Depth Elevation

Earthquake Activity

City Distance Mag. Time & Date
Minimum magnitude displayed is 2.5.

Coastal Water Temperatures

Place Temperature

Stations

Nearby Weather Stations

Station Location Temp. Windchill Dew Point Humidity Wind Precip. Elev Updated Type
                   

Watches & Warnings

Flood Warning
Issued: 9:29 AM EST Jan. 24, 2017 – National Weather Service

The Flood Warning continues for
the edisto river near Givhans Ferry.
* At 8 am Tuesday the stage was 9.3 feet.
* Flood stage is 10.0 feet.
* Minor flooding is forecast.
* Forecast, rise above flood stage by early Wednesday morning and
continue to rise to near 11.3 feet by Friday morning. Additional
rises are possible thereafter.
* At 11.0 feet, Weeks Landing in Canadys is not accessible.


Lat... Lon 3304 8065 3311 8062 3308 8036 3275 8036
          3275 8050 3302 8044